EGPK/PIK METAR and TAF weather

Enter ICAO airport designator
Station Type Date Time Source
EGPK METAR 2019/04/19 22:50 UTC NOAA

EGPK 192250Z 00000KT CAVOK 12/07 Q1031


Station Type Date Time Source
EGPK Decoded METAR 2019/04/19 22:50 UTC NOAA

Prestwick Airport, United Kingdom (EGPK) 55-30N 004-35W 0M
Apr 19, 2019 - 06:50 PM EDT / 2019.04.19 2250 UTC
Wind: Calm:0
Visibility: greater than 7 mile(s):0
Temperature: 53 F (12 C)
Dew Point: 44 F (7 C)
Relative Humidity: 71%
Pressure (altimeter): 30.45 in. Hg (1031 hPa)
ob: EGPK 192250Z 00000KT CAVOK 12/07 Q1031
cycle: 23

Station Type Date Time Source
EGPK TAF 2019/04/19 18:09 UTC NOAA

TAF EGPK 191703Z 1918/2018 VRB04KT CAVOK PROB30 1918/2009 7000
BECMG 2009/2012 27010KT

Example: see airport list